Impacts TAF Board INFO
FOR SITUATIONAL AWARENESS. NOT TO BE USED FOR FLIGHT PLANNING PURPOSES.
IDs:

KJAN - Jackson/Evers Intl, MS, US

Issued at 0520 UTC 16 Aug 2018
Updated at 1025 UTC 16 Aug 2018
Potential Impact None Slight Moderate High
Time<<16/23Z 17/00Z 17/01Z 17/02Z 17/03Z 17/04Z 17/05Z 17/06Z 17/07Z 17/08Z 17/09Z 17/10Z 17/11Z>>
Type PRVL PRVL PRVL PRVL PRVL PRVL PRVL
VIS >6 >6 >6 >6 >6 >6 >6
CIG 60 -- -- -- -- -- --
Cover BKN SCT SCT SCT SCT SCT SCT
FltCat VFR VFR VFR VFR VFR VFR VFR
WX VCTS -- -- -- -- -- --
WDir 190 180 180 180 180 180 180
WSpd 6 4 4 4 4 4 4
WGst -- -- -- -- -- -- --

Raw TAF
KJAN 160520Z 1606/1706 17004KT P6SM FEW250
  FM161200 18005KT P6SM SCT025 BKN040 BKN250
  FM161900 19006KT P6SM VCTS SCT040 BKN060CB
  FM170000 18004KT P6SM FEW050 SCT070 SCT250


METAR Board
Radar Display
Forecast Discussion

FOR SITUATIONAL AWARENESS. NOT TO BE USED FOR FLIGHT PLANNING PURPOSES.